Time;durP1;ratioP1;P1;durP2;ratioP2;P2;SDS_P1;SDS_P2;PMS_P1;PMS_P2;Temp;Humidity;BMP_temperature;BMP_pressure;BME280_temperature;BME280_humidity;BME280_pressure;Samples;Min_cycle;Max_cycle;Signal;HPM_P1;HPM_P2
2023/03/25 00:00:29;;;;;;;;;;;;;;;15.37;41.90;100259.84;5037452;28;20380;-83
2023/03/25 00:02:55;;;;;;;;;;;;;;;15.35;41.82;100256.63;5037399;28;20735;-83
2023/03/25 00:05:21;;;;;;;;;;;;;;;15.30;42.02;100264.81;5038914;28;19963;-84
2023/03/25 00:07:48;;;;;;;;;;;;;;;15.27;42.12;100259.19;5034633;28;19925;-84
2023/03/25 00:10:14;;;;;;;;;;;;;;;15.23;41.89;100264.34;5038229;28;19921;-83
2023/03/25 00:12:41;;;;;;;;;;;;;;;15.22;41.89;100268.13;5036508;28;19940;-84
2023/03/25 00:15:07;;;;;;;;;;;;;;;15.14;42.18;100273.38;5040548;28;19972;-82
2023/03/25 00:17:35;;;;;;;;;;;;;;;15.03;41.97;100264.59;5041382;28;19986;-84
2023/03/25 00:20:02;;;;;;;;;;;;;;;14.97;41.99;100265.78;5039840;28;19920;-84
2023/03/25 00:22:28;;;;;;;;;;;;;;;14.93;42.17;100265.56;5023501;28;19961;-84
2023/03/25 00:24:53;;;;;;;;;;;;;;;14.88;42.23;100260.19;5042169;28;19952;-84
2023/03/25 00:27:18;;;;;;;;;;;;;;;14.84;42.31;100261.88;5040635;28;19927;-83
2023/03/25 00:29:44;;;;;;;;;;;;;;;14.80;42.12;100256.25;5043158;28;19924;-84
2023/03/25 00:32:11;;;;;;;;;;;;;;;14.73;42.34;100261.19;5034084;28;19921;-84
2023/03/25 00:34:40;;;;;;;;;;;;;;;14.67;42.67;100265.03;5037716;28;20259;-84
2023/03/25 00:37:08;;;;;;;;;;;;;;;14.62;42.59;100275.06;5037723;28;20330;-84
2023/03/25 00:39:34;;;;;;;;;;;;;;;14.57;42.80;100272.44;5038532;28;19921;-84
2023/03/25 00:42:00;;;;;;;;;;;;;;;14.55;42.85;100271.94;5021541;28;19927;-84
2023/03/25 00:44:26;;;;;;;;;;;;;;;14.52;42.87;100263.28;5040488;28;19940;-83
2023/03/25 00:46:51;;;;;;;;;;;;;;;14.53;42.84;100272.19;5027790;28;19917;-83
2023/03/25 00:49:17;;;;;;;;;;;;;;;14.51;43.02;100266.28;5041298;28;20403;-84
2023/03/25 00:51:42;;;;;;;;;;;;;;;14.46;43.52;100266.34;5043833;28;20376;-84
2023/03/25 00:54:08;;;;;;;;;;;;;;;14.45;43.20;100262.03;5039919;28;19921;-83
2023/03/25 00:56:34;;;;;;;;;;;;;;;14.39;43.29;100265.84;5034479;28;20278;-84
2023/03/25 00:59:00;;;;;;;;;;;;;;;14.37;43.44;100273.41;5042075;28;19994;-84
2023/03/25 01:01:26;;;;;;;;;;;;;;;14.33;43.49;100269.66;5042067;28;19931;-84
2023/03/25 01:03:56;;;;;;;;;;;;;;;14.29;43.65;100266.75;5040213;28;19916;-83
2023/03/25 01:06:23;;;;;;;;;;;;;;;14.31;nan;100267.25;5038937;28;20337;-83
2023/03/25 01:08:51;;;;;;;;;;;;;;;14.34;nan;100271.28;5039367;28;19916;-84
2023/03/25 01:11:18;;;;;;;;;;;;;;;14.35;nan;100267.47;5036785;28;20046;-84
2023/03/25 01:13:44;;;;;;;;;;;;;;;14.36;nan;100266.41;5039016;28;20807;-86
2023/03/25 01:16:10;;;;;;;;;;;;;;;14.32;nan;100266.16;5039074;28;19924;-84
2023/03/25 01:18:36;;;;;;;;;;;;;;;14.34;nan;100268.56;5037171;28;19986;-84
2023/03/25 01:21:05;;;;;;;;;;;;;;;14.41;nan;100260.97;5040352;28;19924;-84
2023/03/25 01:23:31;;;;;;;;;;;;;;;14.48;nan;100264.97;5040078;28;19925;-84
2023/03/25 01:25:56;;;;;;;;;;;;;;;14.54;nan;100263.00;5039637;28;20409;-83
2023/03/25 01:28:21;;;;;;;;;;;;;;;14.56;nan;100263.56;5037951;28;20175;-83
2023/03/25 01:30:47;;;;;;;;;;;;;;;14.57;nan;100259.75;5038995;28;19924;-83
2023/03/25 01:33:12;;;;;;;;;;;;;;;14.59;nan;100262.97;5043318;28;19980;-83
2023/03/25 01:35:37;;;;;;;;;;;;;;;14.58;nan;100264.06;5046698;28;19956;-84
2023/03/25 01:38:03;;;;;;;;;;;;;;;14.59;nan;100256.78;5037705;28;20236;-85
2023/03/25 01:40:28;;;;;;;;;;;;;;;14.60;nan;100261.88;5038186;28;20130;-83
2023/03/25 01:42:54;;;;;;;;;;;;;;;14.61;nan;100251.91;5037086;28;20020;-83
2023/03/25 01:45:24;;;;;;;;;;;;;;;14.55;nan;100250.34;5036041;28;19925;-83
2023/03/25 01:47:52;;;;;;;;;;;;;;;14.50;nan;100249.31;5039206;28;19932;-83
2023/03/25 01:50:19;;;;;;;;;;;;;;;14.54;nan;100252.22;5035517;28;20026;-82
2023/03/25 01:52:47;;;;;;;;;;;;;;;14.56;nan;100243.88;5036892;28;19917;-83
2023/03/25 01:55:13;;;;;;;;;;;;;;;14.50;nan;100245.81;5039845;28;20037;-84
2023/03/25 01:57:42;;;;;;;;;;;;;;;14.52;nan;100246.31;5041695;28;20393;-84
2023/03/25 02:00:08;;;;;;;;;;;;;;;14.47;nan;100244.50;5040500;28;19917;-84
2023/03/25 02:02:35;;;;;;;;;;;;;;;14.49;nan;100244.19;5039143;28;19920;-85
2023/03/25 02:05:09;;;;;;;;;;;;;;;14.43;nan;100243.47;5038187;28;19925;-83
2023/03/25 02:07:36;;;;;;;;;;;;;;;14.42;nan;100241.81;5036458;28;20317;-84
2023/03/25 02:10:05;;;;;;;;;;;;;;;14.44;nan;100238.88;5037929;28;19966;-84
2023/03/25 02:12:30;;;;;;;;;;;;;;;14.43;nan;100240.75;5037992;28;19925;-85
2023/03/25 02:14:59;;;;;;;;;;;;;;;14.47;nan;100232.91;5021400;28;20054;-83
2023/03/25 02:17:43;;;;;;;;;;;;;;;14.43;nan;100245.31;5033688;28;19916;-84
2023/03/25 02:20:08;;;;;;;;;;;;;;;14.40;nan;100243.19;5036583;28;19924;-85
2023/03/25 02:22:51;;;;;;;;;;;;;;;14.37;nan;100233.00;5037010;28;20394;-84
2023/03/25 02:25:44;;;;;;;;;;;;;;;14.41;nan;100234.81;5037979;28;20072;-84
2023/03/25 02:28:28;;;;;;;;;;;;;;;14.36;nan;100225.97;5009240;28;19975;-84
2023/03/25 02:31:11;;;;;;;;;;;;;;;14.35;nan;100224.38;5038644;28;20332;-83
2023/03/25 02:33:57;;;;;;;;;;;;;;;14.36;nan;100213.31;5041923;28;19921;-84
2023/03/25 02:36:37;;;;;;;;;;;;;;;14.34;nan;100214.69;5041482;28;20352;-84
2023/03/25 02:39:18;;;;;;;;;;;;;;;14.33;nan;100207.69;5038376;28;20289;-84
2023/03/25 02:41:56;;;;;;;;;;;;;;;14.29;nan;100201.25;5038662;28;19925;-84
2023/03/25 02:44:29;;;;;;;;;;;;;;;14.29;nan;100201.25;5038233;28;19921;-84
2023/03/25 02:46:56;;;;;;;;;;;;;;;14.29;nan;100198.56;5019712;28;19925;-84
2023/03/25 02:49:33;;;;;;;;;;;;;;;14.29;nan;100201.25;5038942;28;20200;-85
2023/03/25 02:51:58;;;;;;;;;;;;;;;14.27;nan;100196.16;5040344;28;20011;-84
2023/03/25 02:54:25;;;;;;;;;;;;;;;14.28;nan;100194.28;5036000;28;20014;-83
2023/03/25 02:56:56;;;;;;;;;;;;;;;14.26;nan;100196.44;5040887;28;19920;-84
2023/03/25 02:59:22;;;;;;;;;;;;;;;14.23;nan;100192.44;5035880;28;19924;-84
2023/03/25 03:01:49;;;;;;;;;;;;;;;14.24;nan;100191.34;5039408;28;20208;-84
2023/03/25 03:04:14;;;;;;;;;;;;;;;14.26;nan;100191.06;5033894;28;19967;-84
2023/03/25 03:06:42;;;;;;;;;;;;;;;14.24;nan;100188.66;5038887;28;20329;-83
2023/03/25 03:09:26;;;;;;;;;;;;;;;14.21;nan;100190.03;5038949;28;20658;-84
2023/03/25 03:12:10;;;;;;;;;;;;;;;14.25;nan;100186.75;5039499;28;20358;-84
2023/03/25 03:14:53;;;;;;;;;;;;;;;14.20;nan;100191.13;5039002;28;19981;-84
2023/03/25 03:17:24;;;;;;;;;;;;;;;14.22;nan;100188.16;5037807;28;19928;-84
2023/03/25 03:19:53;;;;;;;;;;;;;;;14.23;nan;100181.66;5037974;28;19925;-83
2023/03/25 03:22:37;;;;;;;;;;;;;;;14.20;nan;100183.03;5034571;28;19921;-85
2023/03/25 03:25:11;;;;;;;;;;;;;;;14.17;nan;100183.59;5042218;28;19920;-84
2023/03/25 03:27:45;;;;;;;;;;;;;;;14.19;nan;100173.34;5040331;28;19998;-84
2023/03/25 03:30:21;;;;;;;;;;;;;;;14.17;nan;100170.13;5042151;28;20440;-84
2023/03/25 03:32:48;;;;;;;;;;;;;;;14.20;nan;100180.34;5043845;28;19916;-83
2023/03/25 03:35:40;;;;;;;;;;;;;;;14.20;nan;100182.25;5017901;28;19951;-85
2023/03/25 03:38:10;;;;;;;;;;;;;;;14.14;nan;100172.59;5036585;28;20351;-84
2023/03/25 03:40:37;;;;;;;;;;;;;;;14.12;nan;100172.06;5041897;28;19923;-84
2023/03/25 03:43:06;;;;;;;;;;;;;;;14.15;nan;100172.28;5040790;28;19928;-84
2023/03/25 03:45:41;;;;;;;;;;;;;;;14.19;nan;100170.66;5039645;28;19927;-85
2023/03/25 03:48:14;;;;;;;;;;;;;;;14.16;nan;100171.22;5039034;28;20472;-84
2023/03/25 03:50:45;;;;;;;;;;;;;;;14.22;nan;100169.28;5041748;28;19917;-84
2023/03/25 03:53:22;;;;;;;;;;;;;;;14.23;nan;100170.09;5043029;28;19921;-84
2023/03/25 03:56:05;;;;;;;;;;;;;;;14.28;nan;100159.25;5043789;28;19925;-84
2023/03/25 03:58:33;;;;;;;;;;;;;;;14.27;nan;100165.72;5019454;28;19931;-83
2023/03/25 04:01:29;;;;;;;;;;;;;;;14.30;nan;100160.56;5038284;28;19932;-84
2023/03/25 04:04:16;;;;;;;;;;;;;;;14.27;nan;100152.25;5027990;28;20096;-84
2023/03/25 04:06:55;;;;;;;;;;;;;;;14.33;nan;100159.19;5041794;28;19916;-85
2023/03/25 04:09:26;;;;;;;;;;;;;;;14.40;nan;100154.25;5050351;22;19929;-84
2023/03/25 04:11:59;;;;;;;;;;;;;;;14.40;nan;100156.97;5024605;28;20119;-86
2023/03/25 04:14:25;;;;;;;;;;;;;;;14.41;nan;100155.88;5039133;28;19920;-85
2023/03/25 04:16:51;;;;;;;;;;;;;;;14.44;nan;100160.72;5034646;28;19931;-84
2023/03/25 04:19:17;;;;;;;;;;;;;;;14.44;nan;100168.78;5026056;28;20351;-85
2023/03/25 04:21:44;;;;;;;;;;;;;;;14.47;nan;100173.59;5025422;28;19960;-84
2023/03/25 04:24:10;;;;;;;;;;;;;;;14.48;nan;100178.69;5023807;28;19928;-85
2023/03/25 04:26:36;;;;;;;;;;;;;;;14.55;nan;100181.06;5029200;28;20020;-85
2023/03/25 04:29:02;;;;;;;;;;;;;;;14.61;nan;100188.00;5025121;28;19921;-85
2023/03/25 04:31:29;;;;;;;;;;;;;;;14.60;nan;100181.00;5023795;28;19921;-85
2023/03/25 04:33:56;;;;;;;;;;;;;;;14.62;nan;100183.41;5028463;28;20306;-85
2023/03/25 04:36:22;;;;;;;;;;;;;;;14.67;nan;100186.03;5027845;28;19924;-85
2023/03/25 04:38:47;;;;;;;;;;;;;;;14.68;nan;100185.75;5023422;28;19921;-86
2023/03/25 04:41:13;;;;;;;;;;;;;;;14.70;nan;100185.44;5021918;28;20268;-86
2023/03/25 04:43:39;;;;;;;;;;;;;;;14.73;nan;100179.50;5021610;28;20405;-85
2023/03/25 04:46:05;;;;;;;;;;;;;;;14.74;nan;100181.09;5024439;28;19917;-85
2023/03/25 04:48:33;;;;;;;;;;;;;;;14.76;nan;100174.31;5021429;28;19924;-85
2023/03/25 04:50:59;;;;;;;;;;;;;;;14.80;nan;100174.53;5022211;28;19929;-86
2023/03/25 04:53:25;;;;;;;;;;;;;;;14.78;nan;100172.16;5023395;28;19917;-85
2023/03/25 04:55:51;;;;;;;;;;;;;;;14.83;nan;100171.25;5027937;28;20275;-85
2023/03/25 04:58:16;;;;;;;;;;;;;;;14.83;nan;100168.56;5024735;28;20009;-85
2023/03/25 05:00:43;;;;;;;;;;;;;;;14.84;nan;100161.28;5024848;28;20014;-85
2023/03/25 05:03:10;;;;;;;;;;;;;;;14.84;nan;100164.78;5019888;28;19925;-86
2023/03/25 05:05:36;;;;;;;;;;;;;;;14.92;nan;100169.53;5023023;28;20317;-85
2023/03/25 05:08:02;;;;;;;;;;;;;;;14.95;nan;100165.44;5021398;28;19962;-85
2023/03/25 05:10:28;;;;;;;;;;;;;;;14.98;nan;100167.56;5022543;28;20410;-85
2023/03/25 05:13:00;;;;;;;;;;;;;;;14.98;nan;100164.88;5017879;28;19924;-85
2023/03/25 05:15:27;;;;;;;;;;;;;;;14.99;nan;100163.78;5021266;28;19925;-86
2023/03/25 05:17:52;;;;;;;;;;;;;;;15.02;nan;100168.56;5020317;28;19925;-85
2023/03/25 05:20:17;;;;;;;;;;;;;;;15.00;nan;100168.88;5021018;28;19932;-86
2023/03/25 05:22:44;;;;;;;;;;;;;;;14.98;nan;100170.25;5022112;28;19917;-86
2023/03/25 05:25:10;;;;;;;;;;;;;;;14.98;nan;100170.25;5020626;28;19937;-86
2023/03/25 05:27:36;;;;;;;;;;;;;;;14.97;nan;100166.75;5021467;28;20188;-86
2023/03/25 05:30:02;;;;;;;;;;;;;;;15.01;nan;100164.28;5021869;28;20424;-85
2023/03/25 05:32:34;;;;;;;;;;;;;;;15.01;nan;100159.69;5020169;28;19921;-86
2023/03/25 05:35:00;;;;;;;;;;;;;;;15.00;nan;100157.28;5019821;28;20371;-85
2023/03/25 05:37:26;;;;;;;;;;;;;;;15.01;nan;100162.38;5019649;28;19932;-85
2023/03/25 05:39:51;;;;;;;;;;;;;;;15.06;nan;100153.41;5019726;28;19917;-85
2023/03/25 05:42:17;;;;;;;;;;;;;;;15.07;nan;100158.50;5024428;28;20289;-85
2023/03/25 05:44:45;;;;;;;;;;;;;;;15.12;nan;100163.06;5023059;28;19917;-85
2023/03/25 05:47:12;;;;;;;;;;;;;;;15.09;nan;100172.53;5019194;28;20229;-86
2023/03/25 05:49:37;;;;;;;;;;;;;;;15.07;nan;100179.28;5019991;28;20357;-85
2023/03/25 05:52:03;;;;;;;;;;;;;;;15.10;nan;100178.72;5024350;28;19960;-85
2023/03/25 05:54:28;;;;;;;;;;;;;;;15.13;nan;100188.13;5023044;28;19917;-85
2023/03/25 05:56:53;;;;;;;;;;;;;;;15.12;nan;100176.53;5023161;28;19921;-85
2023/03/25 05:59:19;;;;;;;;;;;;;;;15.13;nan;100175.44;5021855;28;19925;-85
2023/03/25 06:01:48;;;;;;;;;;;;;;;15.13;nan;100180.03;5022469;28;20084;-85
2023/03/25 06:04:15;;;;;;;;;;;;;;;15.15;nan;100181.34;5021421;28;20329;-85
2023/03/25 06:06:41;;;;;;;;;;;;;;;15.11;nan;100177.63;5022346;28;19917;-86
2023/03/25 06:09:06;;;;;;;;;;;;;;;15.14;nan;100179.75;5023754;28;20213;-86
2023/03/25 06:11:36;;;;;;;;;;;;;;;15.19;nan;100173.47;5019966;28;20020;-85
2023/03/25 06:14:03;;;;;;;;;;;;;;;15.26;nan;100184.69;5020991;28;19927;-86
2023/03/25 06:16:29;;;;;;;;;;;;;;;15.28;nan;100185.22;5025833;28;20406;-85
2023/03/25 06:18:58;;;;;;;;;;;;;;;15.33;nan;100183.25;5020815;28;20346;-86
2023/03/25 06:21:25;;;;;;;;;;;;;;;15.33;nan;100175.13;5019820;28;19917;-85
2023/03/25 06:23:52;;;;;;;;;;;;;;;15.39;nan;100178.56;5017340;28;19925;-85
2023/03/25 06:26:19;;;;;;;;;;;;;;;15.39;nan;100176.66;5018188;28;19943;-85
2023/03/25 06:28:45;;;;;;;;;;;;;;;15.47;nan;100177.09;5020694;28;20013;-85
2023/03/25 06:31:11;;;;;;;;;;;;;;;15.51;nan;100181.63;5020432;28;20019;-86
2023/03/25 06:33:37;;;;;;;;;;;;;;;15.55;nan;100179.13;5019501;28;20628;-85
2023/03/25 06:36:06;;;;;;;;;;;;;;;15.58;nan;100179.31;5022498;28;19931;-86
2023/03/25 06:38:32;;;;;;;;;;;;;;;15.61;nan;100177.97;5022661;28;19928;-85
2023/03/25 06:40:58;;;;;;;;;;;;;;;15.70;nan;100184.31;5022412;28;19925;-85
2023/03/25 06:43:23;;;;;;;;;;;;;;;15.75;nan;100178.81;5022390;28;20452;-85
2023/03/25 06:45:52;;;;;;;;;;;;;;;15.77;nan;100187.41;5017685;28;19929;-85
2023/03/25 06:48:17;;;;;;;;;;;;;;;15.92;nan;100189.88;5018897;28;19964;-86
2023/03/25 06:50:44;;;;;;;;;;;;;;;15.91;nan;100199.06;5015173;28;20525;-85
2023/03/25 06:53:10;;;;;;;;;;;;;;;15.95;nan;100189.25;5012813;28;20814;-87
2023/03/25 06:55:35;;;;;;;;;;;;;;;15.93;nan;100191.47;5013022;28;19932;-87
2023/03/25 06:58:01;;;;;;;;;;;;;;;16.00;nan;100188.41;5014549;28;20139;-87
2023/03/25 07:00:27;;;;;;;;;;;;;;;16.12;nan;100183.28;5023006;28;19971;-85
2023/03/25 07:02:53;;;;;;;;;;;;;;;16.21;nan;100188.81;5026307;28;19917;-85
2023/03/25 07:05:18;;;;;;;;;;;;;;;16.26;nan;100188.72;5023152;28;20330;-85
2023/03/25 07:07:43;;;;;;;;;;;;;;;16.27;nan;100182.22;5023435;28;20148;-85
2023/03/25 07:10:12;;;;;;;;;;;;;;;16.27;nan;100187.63;5025061;28;20047;-85
2023/03/25 07:12:38;;;;;;;;;;;;;;;16.26;nan;100192.22;5009134;28;19992;-85
2023/03/25 07:15:04;;;;;;;;;;;;;;;16.19;nan;100194.53;5027762;28;20004;-85
2023/03/25 07:17:29;;;;;;;;;;;;;;;16.25;nan;100193.31;5020921;28;19929;-86
2023/03/25 07:19:55;;;;;;;;;;;;;;;16.22;nan;100195.84;5023044;28;20667;-86
2023/03/25 07:22:20;;;;;;;;;;;;;;;16.28;nan;100189.22;5024835;28;20370;-86
2023/03/25 07:24:45;;;;;;;;;;;;;;;16.37;nan;100197.44;5024618;28;19917;-85
2023/03/25 07:27:12;;;;;;;;;;;;;;;16.32;nan;100199.13;5025763;28;20514;-86
2023/03/25 07:29:38;;;;;;;;;;;;;;;16.36;nan;100203.97;5026206;28;19920;-86
2023/03/25 07:32:03;;;;;;;;;;;;;;;16.37;nan;100190.13;5025014;28;20524;-85
2023/03/25 07:34:29;;;;;;;;;;;;;;;16.42;nan;100200.06;5025506;28;19932;-85
2023/03/25 07:36:55;;;;;;;;;;;;;;;16.50;nan;100200.13;5026031;28;19932;-85
2023/03/25 07:39:20;;;;;;;;;;;;;;;16.66;nan;100197.94;5006013;28;19921;-85
2023/03/25 07:41:46;;;;;;;;;;;;;;;16.72;nan;100195.97;5025512;28;20524;-85
2023/03/25 07:44:11;;;;;;;;;;;;;;;16.69;nan;100197.34;5024467;28;20023;-85
2023/03/25 07:46:37;;;;;;;;;;;;;;;16.76;nan;100197.75;5020204;28;19937;-85
2023/03/25 07:49:02;;;;;;;;;;;;;;;16.94;nan;100212.28;5026526;28;20417;-86
2023/03/25 07:51:29;;;;;;;;;;;;;;;17.15;nan;100209.91;5024908;28;19921;-84
2023/03/25 07:53:54;;;;;;;;;;;;;;;17.25;nan;100206.19;5020490;28;19940;-85
2023/03/25 07:56:19;;;;;;;;;;;;;;;17.36;nan;100199.44;5022433;28;19929;-85
2023/03/25 07:58:45;;;;;;;;;;;;;;;17.58;nan;100207.56;5024513;28;19928;-85
2023/03/25 08:01:10;;;;;;;;;;;;;;;17.81;nan;100203.00;5025152;28;20353;-86
2023/03/25 08:03:38;;;;;;;;;;;;;;;17.88;nan;100205.25;5023064;28;20639;-86
2023/03/25 08:06:04;;;;;;;;;;;;;;;17.93;nan;100207.81;5026687;28;19917;-84
2023/03/25 08:08:29;;;;;;;;;;;;;;;18.03;nan;100196.72;5022990;28;19967;-85
2023/03/25 08:10:55;;;;;;;;;;;;;;;18.01;nan;100201.66;5023177;28;19982;-86
2023/03/25 08:13:20;;;;;;;;;;;;;;;18.05;nan;100198.00;5022036;28;19943;-85
2023/03/25 08:15:46;;;;;;;;;;;;;;;18.09;nan;100190.84;5024783;28;19956;-85
2023/03/25 08:18:11;;;;;;;;;;;;;;;18.07;nan;100198.50;5023587;28;20008;-85
2023/03/25 08:20:36;;;;;;;;;;;;;;;18.13;nan;100196.44;5023393;28;19927;-85
2023/03/25 08:23:02;;;;;;;;;;;;;;;18.21;nan;100194.91;5022715;28;20012;-87
2023/03/25 08:25:28;;;;;;;;;;;;;;;18.30;nan;100201.94;5021180;28;19932;-84
2023/03/25 08:27:53;;;;;;;;;;;;;;;18.31;nan;100203.59;5019194;28;19927;-86
2023/03/25 08:30:19;;;;;;;;;;;;;;;18.22;nan;100197.31;5023189;28;19924;-85
2023/03/25 08:32:45;;;;;;;;;;;;;;;18.27;nan;100196.34;5021300;28;20375;-85
2023/03/25 08:35:11;;;;;;;;;;;;;;;18.31;nan;100192.72;5020082;28;19925;-86
2023/03/25 08:37:36;;;;;;;;;;;;;;;18.22;nan;100194.59;5021154;28;19947;-85
2023/03/25 08:40:08;;;;;;;;;;;;;;;18.14;nan;100211.63;5022378;28;19917;-84
2023/03/25 08:42:35;;;;;;;;;;;;;;;18.03;nan;100208.38;5005337;28;20148;-86
2023/03/25 08:45:00;;;;;;;;;;;;;;;17.96;nan;100202.59;5023186;28;20355;-86
2023/03/25 08:47:25;;;;;;;;;;;;;;;17.98;nan;100208.50;5019705;28;19921;-85
2023/03/25 08:49:51;;;;;;;;;;;;;;;18.02;nan;100216.81;5021564;28;19940;-84
2023/03/25 08:52:16;;;;;;;;;;;;;;;18.04;nan;100207.25;5023630;28;19917;-85
2023/03/25 08:54:42;;;;;;;;;;;;;;;18.04;nan;100209.19;5020731;28;19921;-84
2023/03/25 08:57:07;;;;;;;;;;;;;;;18.11;nan;100209.53;5021552;28;19932;-85
2023/03/25 08:59:43;;;;;;;;;;;;;;;18.10;nan;100210.63;5020075;28;19986;-84
2023/03/25 09:02:10;;;;;;;;;;;;;;;18.10;nan;100203.28;5024031;28;19921;-86
2023/03/25 09:04:37;;;;;;;;;;;;;;;18.09;nan;100206.31;5020815;28;19917;-85
2023/03/25 09:07:03;;;;;;;;;;;;;;;18.12;nan;100205.69;5026960;28;19921;-84
2023/03/25 09:09:28;;;;;;;;;;;;;;;18.17;nan;100207.50;5017923;28;20271;-84
2023/03/25 09:11:54;;;;;;;;;;;;;;;18.23;nan;100207.03;5021890;28;19925;-84
2023/03/25 09:14:19;;;;;;;;;;;;;;;18.25;nan;100201.31;5021191;28;20015;-86
2023/03/25 09:16:45;;;;;;;;;;;;;;;18.30;nan;100198.44;5006855;28;19990;-84
2023/03/25 09:19:10;;;;;;;;;;;;;;;18.36;nan;100189.88;5020050;28;19931;-85
2023/03/25 09:21:36;;;;;;;;;;;;;;;18.50;nan;100200.63;5016797;28;19968;-85
2023/03/25 09:24:01;;;;;;;;;;;;;;;18.51;nan;100196.78;5021508;28;19917;-84
2023/03/25 09:26:27;;;;;;;;;;;;;;;18.57;nan;100187.38;5020837;28;20043;-86
2023/03/25 09:28:54;;;;;;;;;;;;;;;18.60;nan;100197.59;5021396;28;20397;-84
2023/03/25 09:31:20;;;;;;;;;;;;;;;18.74;nan;100202.94;5022772;28;19951;-85
2023/03/25 09:33:45;;;;;;;;;;;;;;;18.74;nan;100200.25;5020937;28;19921;-85
2023/03/25 09:36:11;;;;;;;;;;;;;;;18.82;nan;100194.00;5022994;28;19921;-84
2023/03/25 09:38:37;;;;;;;;;;;;;;;18.75;nan;100201.03;5019123;28;20437;-85
2023/03/25 09:41:04;;;;;;;;;;;;;;;18.56;nan;100193.13;5016894;28;20353;-84
2023/03/25 09:43:55;;;;;;;;;;;;;;;18.53;nan;100199.19;5019291;28;20294;-84
2023/03/25 09:46:21;;;;;;;;;;;;;;;18.61;nan;100199.19;5019138;28;19921;-85
2023/03/25 09:48:47;;;;;;;;;;;;;;;18.67;nan;100199.88;5018107;28;20064;-86
2023/03/25 09:51:12;;;;;;;;;;;;;;;18.71;nan;100209.00;5020933;28;20025;-84
2023/03/25 09:53:47;;;;;;;;;;;;;;;18.65;nan;100199.41;5018398;28;20023;-85
2023/03/25 09:56:19;;;;;;;;;;;;;;;18.52;nan;100195.69;5024171;28;19932;-86
2023/03/25 09:58:46;;;;;;;;;;;;;;;18.53;nan;100193.75;5012737;28;20196;-86
2023/03/25 10:01:17;;;;;;;;;;;;;;;18.58;nan;100207.97;5017560;28;20264;-85
2023/03/25 10:03:54;;;;;;;;;;;;;;;18.51;nan;100201.41;5019718;28;19925;-84
2023/03/25 10:06:21;;;;;;;;;;;;;;;18.54;nan;100201.59;5017508;28;19952;-86
2023/03/25 10:08:52;;;;;;;;;;;;;;;18.59;nan;100201.44;5018094;28;20012;-86
2023/03/25 10:11:38;;;;;;;;;;;;;;;18.61;nan;100196.50;5021373;28;19929;-87
2023/03/25 10:14:16;;;;;;;;;;;;;;;18.60;nan;100188.66;5012421;28;19921;-85
2023/03/25 10:17:08;;;;;;;;;;;;;;;18.68;nan;100187.94;5017818;28;19944;-85
2023/03/25 10:19:50;;;;;;;;;;;;;;;18.70;nan;100194.66;5012669;28;19968;-84
2023/03/25 10:22:24;;;;;;;;;;;;;;;18.75;nan;100184.75;5017932;28;19983;-84
2023/03/25 10:24:55;;;;;;;;;;;;;;;18.84;nan;100175.50;5016794;28;19921;-85
2023/03/25 10:27:22;;;;;;;;;;;;;;;18.73;nan;100185.06;5024168;28;19975;-85
2023/03/25 10:29:48;;;;;;;;;;;;;;;18.69;nan;100186.81;5022507;28;20158;-84
2023/03/25 10:32:20;;;;;;;;;;;;;;;18.78;nan;100190.34;5020048;28;19921;-85
2023/03/25 10:34:50;;;;;;;;;;;;;;;18.83;nan;100181.25;5023611;28;20370;-85
2023/03/25 10:37:29;;;;;;;;;;;;;;;18.83;nan;100175.81;5026960;28;20066;-84
2023/03/25 10:40:10;;;;;;;;;;;;;;;18.81;nan;100180.75;5028373;28;19924;-87
2023/03/25 10:42:38;;;;;;;;;;;;;;;18.87;nan;100179.50;5028054;28;19940;-86
2023/03/25 10:45:11;;;;;;;;;;;;;;;18.94;nan;100183.34;5024909;28;19983;-85
2023/03/25 10:47:39;;;;;;;;;;;;;;;19.04;nan;100178.75;5024031;28;20457;-86
2023/03/25 10:50:05;;;;;;;;;;;;;;;19.03;nan;100180.66;5022397;28;19955;-86
2023/03/25 10:52:31;;;;;;;;;;;;;;;19.04;nan;100171.41;5020739;28;19917;-85
2023/03/25 10:54:57;;;;;;;;;;;;;;;19.16;nan;100179.69;5021306;28;19917;-85
2023/03/25 10:57:25;;;;;;;;;;;;;;;19.11;nan;100176.34;5027506;28;19917;-86
2023/03/25 11:00:13;;;;;;;;;;;;;;;19.04;nan;100192.31;5032292;28;19925;-84
2023/03/25 11:02:38;;;;;;;;;;;;;;;18.92;nan;100185.59;5025178;28;20072;-84
2023/03/25 11:05:06;;;;;;;;;;;;;;;18.90;nan;100181.59;5029277;28;20004;-84
2023/03/25 11:07:33;;;;;;;;;;;;;;;18.86;nan;100178.72;5022744;28;19917;-84
2023/03/25 11:10:09;;;;;;;;;;;;;;;18.90;nan;100187.03;5022858;28;20466;-85
2023/03/25 11:12:35;;;;;;;;;;;;;;;18.90;nan;100176.97;5023861;28;20287;-84
2023/03/25 11:15:01;;;;;;;;;;;;;;;18.86;nan;100176.00;5025965;28;20015;-85
2023/03/25 11:17:27;;;;;;;;;;;;;;;18.90;nan;100166.09;5023584;28;20020;-84
2023/03/25 11:19:59;;;;;;;;;;;;;;;18.97;nan;100174.56;5025724;28;20463;-85
2023/03/25 11:22:31;;;;;;;;;;;;;;;19.06;nan;100165.66;5022161;28;19996;-85
2023/03/25 11:24:59;;;;;;;;;;;;;;;19.06;nan;100162.94;5019915;28;19921;-85
2023/03/25 11:27:27;;;;;;;;;;;;;;;19.22;nan;100167.56;5028267;28;19943;-85
2023/03/25 11:29:54;;;;;;;;;;;;;;;19.33;nan;100162.59;5025623;28;19991;-85
2023/03/25 11:32:30;;;;;;;;;;;;;;;19.41;nan;100150.16;5023880;28;20298;-86
2023/03/25 11:34:56;;;;;;;;;;;;;;;19.46;nan;100152.69;5019739;28;19925;-84
2023/03/25 11:37:23;;;;;;;;;;;;;;;19.70;nan;100160.34;5025806;28;19927;-85
2023/03/25 11:39:50;;;;;;;;;;;;;;;19.77;nan;100163.38;5004504;28;19994;-84
2023/03/25 11:42:15;;;;;;;;;;;;;;;19.75;nan;100152.84;5026464;28;20060;-86
2023/03/25 11:44:42;;;;;;;;;;;;;;;19.79;nan;100152.97;5022568;28;19971;-85
2023/03/25 11:47:09;;;;;;;;;;;;;;;19.77;nan;100152.50;5022321;28;20382;-87
2023/03/25 11:49:40;;;;;;;;;;;;;;;19.71;nan;100153.78;5029751;28;20298;-85
2023/03/25 11:52:12;;;;;;;;;;;;;;;19.71;nan;100157.28;5026833;28;20374;-86
2023/03/25 11:54:38;;;;;;;;;;;;;;;19.64;nan;100170.59;5024195;28;19925;-85
2023/03/25 11:57:06;;;;;;;;;;;;;;;19.41;nan;100164.53;5021572;28;19925;-85
2023/03/25 11:59:35;;;;;;;;;;;;;;;19.09;nan;100165.81;5024029;28;20022;-86
2023/03/25 12:02:36;;;;;;;;;;;;;;;18.94;nan;100160.84;5027632;28;19920;-84
2023/03/25 12:05:11;;;;;;;;;;;;;;;18.90;nan;100147.09;4924196;29;19958;-85
2023/03/25 12:07:46;;;;;;;;;;;;;;;19.00;nan;100148.69;5006823;28;19982;-86
2023/03/25 12:10:35;;;;;;;;;;;;;;;19.07;nan;100131.94;5024993;28;19955;-86
2023/03/25 12:13:12;;;;;;;;;;;;;;;19.36;nan;100131.28;5019869;28;20441;-85
2023/03/25 12:15:57;;;;;;;;;;;;;;;19.65;nan;100133.34;5023323;28;19947;-84
2023/03/25 12:18:55;;;;;;;;;;;;;;;19.75;nan;100131.09;5015614;28;19917;-85
2023/03/25 12:21:39;;;;;;;;;;;;;;;19.71;nan;100129.31;4994662;28;20028;-84
2023/03/25 12:24:10;;;;;;;;;;;;;;;19.92;nan;100124.78;5009080;28;19918;-84
2023/03/25 12:27:03;;;;;;;;;;;;;;;19.98;nan;100114.53;5021366;28;19921;-84
2023/03/25 12:29:40;;;;;;;;;;;;;;;20.03;nan;100114.34;4984683;28;21557;-85
2023/03/25 12:32:25;;;;;;;;;;;;;;;20.24;nan;100107.03;5024185;28;20406;-84
2023/03/25 12:34:55;;;;;;;;;;;;;;;20.43;nan;100112.88;5020419;28;19927;-84
2023/03/25 12:37:21;;;;;;;;;;;;;;;20.52;nan;100104.69;5019942;28;19918;-84
2023/03/25 12:39:46;;;;;;;;;;;;;;;20.54;nan;100098.91;5020188;28;19928;-86
2023/03/25 12:42:24;;;;;;;;;;;;;;;20.58;nan;100092.47;5020770;28;19929;-84
2023/03/25 12:44:52;;;;;;;;;;;;;;;20.68;nan;100091.28;5019638;28;19925;-85
2023/03/25 12:47:36;;;;;;;;;;;;;;;20.85;nan;100090.38;5021788;28;20333;-86
2023/03/25 12:50:02;;;;;;;;;;;;;;;20.89;nan;100083.94;5016907;28;20002;-85
2023/03/25 12:52:49;;;;;;;;;;;;;;;20.93;nan;100086.78;5020488;28;19929;-84
2023/03/25 12:55:33;;;;;;;;;;;;;;;20.84;nan;100083.34;5026146;28;19924;-84
2023/03/25 12:58:16;;;;;;;;;;;;;;;20.94;nan;100086.44;5023725;28;19921;-84
2023/03/25 13:01:00;;;;;;;;;;;;;;;20.88;nan;100070.66;5024455;28;19921;-86
2023/03/25 13:03:26;;;;;;;;;;;;;;;20.94;nan;100077.47;5021329;28;19917;-85
2023/03/25 13:05:57;;;;;;;;;;;;;;;20.97;nan;100077.59;5004853;28;19924;-85